Time;durP1;ratioP1;P1;durP2;ratioP2;P2;SDS_P1;SDS_P2;PMS_P1;PMS_P2;Temp;Humidity;BMP_temperature;BMP_pressure;BME280_temperature;BME280_humidity;BME280_pressure;Samples;Min_cycle;Max_cycle;Signal;HPM_P1;HPM_P2
2022/06/11 00:02:06;;;;;;;9.63;5.00;;;;;;;17.28;77.26;101866.53;3596882;39;20370;-62
2022/06/11 00:04:41;;;;;;;11.07;4.95;;;;;;;17.27;77.99;101871.13;3598591;39;20048;-63
2022/06/11 00:07:20;;;;;;;13.13;4.80;;;;;;;17.28;76.89;101872.84;3597632;39;20050;-62
2022/06/11 00:09:46;;;;;;;9.02;4.93;;;;;;;17.29;77.39;101874.59;3602159;39;20054;-62
2022/06/11 00:12:13;;;;;;;6.60;4.25;;;;;;;16.99;77.37;101817.94;3601274;39;20143;-62
2022/06/11 00:14:42;;;;;;;8.85;4.38;;;;;;;17.31;76.99;101875.34;3599852;39;20058;-61
2022/06/11 00:17:13;;;;;;;7.85;4.45;;;;;;;17.30;76.76;101872.75;3598988;39;20051;-62
2022/06/11 00:19:42;;;;;;;10.43;4.90;;;;;;;17.26;76.98;101877.53;3601768;39;20394;-62
2022/06/11 00:22:12;;;;;;;7.90;4.60;;;;;;;16.52;76.51;101758.88;3600462;39;20294;-62
2022/06/11 00:24:38;;;;;;;9.18;5.03;;;;;;;17.20;77.25;101874.41;3601063;39;20055;-63
2022/06/11 00:27:05;;;;;;;8.65;5.00;;;;;;;17.18;77.88;101874.50;3602674;39;20057;-61
2022/06/11 00:29:35;;;;;;;6.35;4.90;;;;;;;17.17;77.43;101870.06;3599572;39;20053;-62
2022/06/11 00:32:01;;;;;;;6.15;4.80;;;;;;;17.11;77.25;101870.50;3599247;39;20057;-62
2022/06/11 00:34:27;;;;;;;10.20;4.82;;;;;;;17.11;77.74;101870.50;3599382;39;20059;-62
2022/06/11 00:36:54;;;;;;;8.52;4.80;;;;;;;17.08;77.49;101865.28;3600886;39;20064;-62
2022/06/11 00:39:26;;;;;;;10.60;5.75;;;;;;;17.04;77.21;101864.66;3603104;39;20136;-62
2022/06/11 00:41:58;;;;;;;6.63;4.38;;;;;;;17.05;77.12;101868.22;3600500;39;20314;-62
2022/06/11 00:44:25;;;;;;;7.50;4.80;;;;;;;16.96;77.49;101855.31;3602800;39;20072;-61
2022/06/11 00:47:04;;;;;;;9.45;5.28;;;;;;;16.99;77.61;101863.25;3601150;39;20052;-62
2022/06/11 00:49:51;;;;;;;7.13;4.93;;;;;;;16.96;78.01;101866.19;3604465;39;20356;-62
2022/06/11 00:52:20;;;;;;;8.55;4.75;;;;;;;16.92;78.50;101860.97;3603136;39;20063;-62
2022/06/11 00:55:06;;;;;;;12.25;5.40;;;;;;;16.85;78.26;101847.94;3601739;39;20063;-62
2022/06/11 00:57:46;;;;;;;11.35;5.40;;;;;;;16.87;78.19;101852.31;3602261;39;20063;-62
2022/06/11 01:00:31;;;;;;;8.02;5.22;;;;;;;16.84;78.79;101866.09;3591747;39;20059;-62
2022/06/11 01:02:57;;;;;;;10.90;5.43;;;;;;;16.82;78.16;101865.31;3603595;39;20067;-62
2022/06/11 01:05:33;;;;;;;12.75;5.60;;;;;;;16.79;78.46;101868.25;3603023;39;20444;-62
2022/06/11 01:08:31;;;;;;;14.23;6.00;;;;;;;16.78;78.93;101869.25;3601683;39;20055;-61
2022/06/11 01:11:52;;;;;;;7.95;5.15;;;;;;;16.72;78.46;101858.78;3599687;39;20088;-61
2022/06/11 01:14:20;;;;;;;9.00;5.80;;;;;;;16.66;79.27;101857.38;3577210;40;20360;-62
2022/06/11 01:17:16;;;;;;;8.57;5.25;;;;;;;16.62;78.98;101855.88;3578977;40;20056;-62
2022/06/11 01:20:30;;;;;;;9.32;6.03;;;;;;;16.60;79.18;101855.09;3595124;39;20099;-62
2022/06/11 01:23:37;;;;;;;6.22;5.50;;;;;;;16.57;79.15;101851.72;3593164;39;20059;-62
2022/06/11 01:26:37;;;;;;;12.60;6.53;;;;;;;16.56;80.34;101852.72;3602314;39;20054;-62
2022/06/11 01:29:20;;;;;;;9.52;5.82;;;;;;;16.57;80.54;101859.88;3600606;39;20067;-61
2022/06/11 01:32:00;;;;;;;7.97;6.15;;;;;;;16.56;80.50;101859.00;3604526;39;20286;-61
2022/06/11 01:34:48;;;;;;;10.20;6.10;;;;;;;16.56;80.21;101853.59;3604970;39;20058;-62
2022/06/11 01:37:29;;;;;;;9.63;5.93;;;;;;;16.58;80.21;101854.31;3598827;39;20050;-62
2022/06/11 01:40:29;;;;;;;10.70;5.53;;;;;;;16.60;79.84;101843.38;3603288;39;20059;-62
2022/06/11 01:43:09;;;;;;;9.88;6.03;;;;;;;16.60;80.34;101844.22;3601617;39;20056;-62
2022/06/11 01:45:38;;;;;;;10.85;5.25;;;;;;;16.57;80.68;101838.16;3592351;39;20048;-61
2022/06/11 01:48:10;;;;;;;7.03;5.38;;;;;;;16.61;80.09;101843.25;3600962;39;20087;-60
2022/06/11 01:50:50;;;;;;;8.73;5.18;;;;;;;16.63;79.76;101843.16;3600571;39;20062;-60
2022/06/11 01:53:49;;;;;;;7.63;4.95;;;;;;;16.62;79.97;101838.72;3600685;39;20456;-60
2022/06/11 01:56:48;;;;;;;8.20;5.70;;;;;;;16.63;79.42;101837.72;3595171;39;20058;-61
2022/06/11 01:59:38;;;;;;;8.93;5.43;;;;;;;16.63;79.67;101841.31;3599616;39;20054;-61
2022/06/11 02:02:09;;;;;;;9.13;5.18;;;;;;;16.61;79.19;101842.38;3600878;39;20509;-61
2022/06/11 02:05:14;;;;;;;7.00;4.75;;;;;;;16.58;79.21;101845.31;3602619;39;20386;-61
2022/06/11 02:08:20;;;;;;;10.70;4.97;;;;;;;16.55;79.43;101845.53;3601583;39;20119;-61
2022/06/11 02:11:05;;;;;;;10.90;5.15;;;;;;;16.54;79.85;101843.81;3601160;39;20345;-60
2022/06/11 02:13:59;;;;;;;9.77;5.20;;;;;;;16.50;79.13;101842.28;3602830;39;20119;-60
2022/06/11 02:16:46;;;;;;;7.07;4.72;;;;;;;16.51;79.69;101844.03;3602939;39;20063;-61
2022/06/11 02:19:21;;;;;;;6.55;4.85;;;;;;;16.48;79.77;101845.97;3602879;39;20047;-61
2022/06/11 02:22:03;;;;;;;7.13;4.95;;;;;;;16.33;79.57;101830.75;3600583;39;20327;-61
2022/06/11 02:24:53;;;;;;;8.70;5.35;;;;;;;16.05;80.23;101788.44;3601996;39;20064;-60
2022/06/11 02:27:26;;;;;;;9.25;4.78;;;;;;;16.40;79.68;101853.78;3591383;39;20305;-61
2022/06/11 02:29:56;;;;;;;9.10;4.97;;;;;;;16.38;79.97;101853.03;3602573;39;20394;-64
2022/06/11 02:32:26;;;;;;;11.38;4.70;;;;;;;16.35;79.57;101861.38;3601334;39;20059;-62
2022/06/11 02:34:58;;;;;;;8.23;4.97;;;;;;;16.35;79.27;101865.94;3601317;39;20059;-62
2022/06/11 02:37:34;;;;;;;10.10;5.75;;;;;;;16.32;79.73;101861.59;3601260;39;22045;-62
2022/06/11 02:40:18;;;;;;;8.95;5.03;;;;;;;16.31;79.62;101865.28;3602816;39;20039;-62
2022/06/11 02:42:46;;;;;;;9.10;4.55;;;;;;;16.28;79.81;101881.78;3600965;39;20373;-61
2022/06/11 02:45:14;;;;;;;7.53;4.75;;;;;;;16.24;79.52;101869.41;3600963;39;20119;-61
2022/06/11 02:47:43;;;;;;;10.82;5.13;;;;;;;16.22;79.93;101877.63;3601850;39;20059;-62
2022/06/11 02:50:27;;;;;;;7.78;4.80;;;;;;;16.21;79.28;101873.19;3600413;39;20436;-61
2022/06/11 02:52:54;;;;;;;6.72;4.88;;;;;;;16.19;79.75;101871.56;3602005;39;20150;-61
2022/06/11 02:55:21;;;;;;;6.72;5.13;;;;;;;16.15;79.78;101870.03;3601683;39;20090;-61
2022/06/11 02:57:47;;;;;;;6.47;4.93;;;;;;;16.15;79.66;101875.47;3599899;39;20059;-61
2022/06/11 03:00:24;;;;;;;7.88;4.63;;;;;;;16.14;79.75;101884.56;3600581;39;20073;-62
2022/06/11 03:02:50;;;;;;;5.60;4.80;;;;;;;16.10;79.76;101881.19;3600534;39;20432;-61
2022/06/11 03:05:29;;;;;;;8.35;4.80;;;;;;;16.09;79.91;101889.44;3600598;39;20166;-61
2022/06/11 03:07:55;;;;;;;5.53;4.47;;;;;;;16.08;79.84;101885.88;3599022;39;20060;-61
2022/06/11 03:10:24;;;;;;;6.65;4.70;;;;;;;16.08;80.37;101883.16;3597324;39;20075;-61
2022/06/11 03:12:50;;;;;;;8.68;5.00;;;;;;;16.12;79.81;101881.09;3599708;39;20062;-61
2022/06/11 03:15:19;;;;;;;6.97;4.50;;;;;;;16.15;80.12;101891.75;3599932;39;20410;-61
2022/06/11 03:17:48;;;;;;;6.05;4.88;;;;;;;16.18;80.89;101883.38;3599773;39;20055;-61
2022/06/11 03:20:18;;;;;;;7.18;5.15;;;;;;;16.22;80.90;101893.06;3599783;39;20079;-61
2022/06/11 03:22:43;;;;;;;7.50;5.10;;;;;;;16.27;80.06;101887.28;3600285;39;20066;-61
2022/06/11 03:25:12;;;;;;;8.20;4.97;;;;;;;16.33;80.07;101895.00;3598602;39;20055;-64
2022/06/11 03:27:40;;;;;;;5.97;4.50;;;;;;;15.65;79.73;101774.84;3601476;39;20123;-62
2022/06/11 03:30:09;;;;;;;8.38;4.28;;;;;;;16.45;79.76;101900.47;3589769;39;20079;-61
2022/06/11 03:32:35;;;;;;;7.43;5.10;;;;;;;16.41;79.42;101893.50;3602742;39;20066;-63
2022/06/11 03:35:02;;;;;;;5.95;4.72;;;;;;;16.54;79.76;101898.09;3602086;39;20475;-60
2022/06/11 03:37:28;;;;;;;5.97;4.38;;;;;;;16.37;79.71;101864.84;3602360;39;20070;-61
2022/06/11 03:39:54;;;;;;;7.30;4.78;;;;;;;16.30;78.92;101843.66;3600894;39;20055;-61
2022/06/11 03:42:19;;;;;;;6.50;4.78;;;;;;;16.66;78.67;101899.94;3589650;39;20051;-61
2022/06/11 03:44:45;;;;;;;10.38;6.18;;;;;;;16.22;78.58;101833.38;3599713;39;20398;-63
2022/06/11 03:47:11;;;;;;;7.85;5.63;;;;;;;16.75;78.43;101906.59;3600285;39;20352;-61
2022/06/11 03:49:37;;;;;;;5.32;4.50;;;;;;;16.60;78.73;101886.81;3598318;39;20842;-62
2022/06/11 03:52:06;;;;;;;5.72;4.65;;;;;;;16.81;78.70;101919.72;3600127;39;20044;-65
2022/06/11 03:54:32;;;;;;;7.65;4.70;;;;;;;16.58;78.57;101880.59;3591621;39;20039;-62
2022/06/11 03:56:57;;;;;;;8.02;4.38;;;;;;;16.71;78.78;101900.47;3599278;39;20066;-64
2022/06/11 03:59:23;;;;;;;6.72;4.50;;;;;;;13.84;77.66;101412.63;3599479;39;20052;-63
2022/06/11 04:01:49;;;;;;;5.63;4.30;;;;;;;16.88;78.57;101932.78;3590918;39;20688;-64
2022/06/11 04:04:20;;;;;;;5.13;4.43;;;;;;;16.50;77.94;101870.31;3600419;39;20046;-64
2022/06/11 04:06:53;;;;;;;5.60;4.20;;;;;;;16.86;77.78;101923.00;3596759;39;20048;-63
2022/06/11 04:09:27;;;;;;;5.60;4.60;;;;;;;16.89;77.54;101931.81;3600523;39;20055;-63
2022/06/11 04:11:52;;;;;;;;;;;;;;;16.92;78.24;101937.00;3599597;39;20059;-61
2022/06/11 04:14:19;;;;;;;6.50;4.20;;;;;;;16.94;77.44;101945.94;3599231;39;19943;-64
2022/06/11 04:17:13;;;;;;;5.35;4.30;;;;;;;16.99;76.96;101944.72;3601922;39;20063;-61
2022/06/11 04:19:44;;;;;;;5.72;4.20;;;;;;;17.01;77.52;101945.50;3602436;39;20067;-61
2022/06/11 04:22:10;;;;;;;7.10;4.60;;;;;;;17.01;77.65;101940.94;3601873;39;20063;-61
2022/06/11 04:24:36;;;;;;;5.63;4.25;;;;;;;17.04;77.13;101953.44;3603084;39;20044;-62
2022/06/11 04:27:07;;;;;;;5.97;4.20;;;;;;;17.09;77.17;101949.38;3598357;39;20056;-62
2022/06/11 04:29:38;;;;;;;4.40;3.85;;;;;;;17.12;77.77;101953.75;3600326;39;20052;-61
2022/06/11 04:32:09;;;;;;;6.43;3.97;;;;;;;17.13;76.90;101950.94;3600221;39;20071;-62
2022/06/11 04:34:36;;;;;;;6.57;3.97;;;;;;;17.15;77.50;101958.97;3601754;39;20055;-62
2022/06/11 04:37:02;;;;;;;6.13;4.20;;;;;;;17.15;77.00;101956.25;3601681;39;20124;-62
2022/06/11 04:39:33;;;;;;;5.45;4.00;;;;;;;17.18;76.48;101956.03;3601681;39;20121;-62
2022/06/11 04:42:00;;;;;;;8.13;3.85;;;;;;;17.20;76.48;101961.38;3601100;39;20066;-63
2022/06/11 04:44:26;;;;;;;8.63;3.95;;;;;;;17.20;76.48;101964.94;3600387;39;20054;-62
2022/06/11 04:46:53;;;;;;;8.00;3.83;;;;;;;17.22;76.27;101963.00;3599228;39;20047;-62
2022/06/11 04:49:19;;;;;;;5.70;3.65;;;;;;;17.26;76.30;101978.09;3600639;39;20059;-61
2022/06/11 04:51:45;;;;;;;6.95;3.78;;;;;;;17.28;76.42;101970.69;3600360;39;20047;-62
2022/06/11 04:54:11;;;;;;;6.85;4.20;;;;;;;17.32;75.60;101971.34;3593003;39;20043;-61
2022/06/11 04:56:38;;;;;;;6.78;4.00;;;;;;;17.20;75.59;101942.34;3599555;39;20100;-62
2022/06/11 04:59:04;;;;;;;6.45;3.78;;;;;;;17.32;75.52;101961.34;3600342;39;20043;-61
2022/06/11 05:01:30;;;;;;;10.32;3.65;;;;;;;17.35;76.15;101958.41;3599812;39;20708;-61
2022/06/11 05:03:56;;;;;;;5.65;3.83;;;;;;;17.38;75.37;101966.34;3601567;39;20070;-61
2022/06/11 05:06:31;;;;;;;6.82;3.95;;;;;;;17.27;75.31;101943.63;3600334;39;20427;-61
2022/06/11 05:08:57;;;;;;;4.22;3.78;;;;;;;17.46;74.57;101970.34;3598840;39;20043;-61
2022/06/11 05:11:23;;;;;;;7.20;3.90;;;;;;;17.51;74.82;101965.44;3599832;39;20078;-61
2022/06/11 05:13:49;;;;;;;7.40;3.65;;;;;;;17.54;74.26;101962.50;3600041;39;20128;-61
2022/06/11 05:16:20;;;;;;;8.43;4.28;;;;;;;17.41;73.25;101927.16;3600102;39;20052;-61
2022/06/11 05:18:45;;;;;;;6.32;4.20;;;;;;;17.60;72.44;101956.59;3600013;39;20066;-61
2022/06/11 05:21:11;;;;;;;8.43;3.83;;;;;;;17.64;72.54;101966.28;3601146;39;20059;-62
2022/06/11 05:23:37;;;;;;;7.90;4.00;;;;;;;17.67;71.82;101971.50;3596058;39;20059;-61
2022/06/11 05:26:03;;;;;;;10.48;4.35;;;;;;;17.73;71.87;101971.06;3601394;39;20047;-61
2022/06/11 05:28:32;;;;;;;7.80;3.88;;;;;;;17.77;71.14;101969.00;3600164;39;20047;-61
2022/06/11 05:30:59;;;;;;;7.63;3.22;;;;;;;17.79;69.51;101975.19;3601636;39;20592;-61
2022/06/11 05:33:27;;;;;;;9.02;3.60;;;;;;;17.69;69.38;101958.63;3600529;39;20068;-61
2022/06/11 05:35:53;;;;;;;6.22;3.50;;;;;;;17.83;69.68;101972.13;3602672;39;20051;-61
2022/06/11 05:38:25;;;;;;;8.88;3.70;;;;;;;17.82;69.04;101967.69;3600031;39;20110;-61
2022/06/11 05:40:54;;;;;;;9.05;3.38;;;;;;;17.82;67.38;101977.66;3602291;39;20048;-62
2022/06/11 05:43:21;;;;;;;6.32;3.30;;;;;;;17.78;66.82;101985.19;3599729;39;20095;-62
2022/06/11 05:46:18;;;;;;;10.27;3.60;;;;;;;17.76;65.88;101987.16;3600028;39;20039;-61
2022/06/11 05:48:58;;;;;;;8.95;3.53;;;;;;;17.75;66.17;101979.94;3600819;39;20067;-62
2022/06/11 05:51:34;;;;;;;11.15;3.70;;;;;;;17.81;66.83;101979.53;3599884;39;20043;-63
2022/06/11 05:54:07;;;;;;;11.38;3.80;;;;;;;17.92;65.84;101980.56;3601641;39;20059;-65
2022/06/11 05:56:33;;;;;;;;;;;;;;;17.91;66.39;101963.38;3602315;39;20070;-63
2022/06/11 05:59:07;;;;;;;13.88;4.32;;;;;;;18.02;64.91;101966.19;3603075;39;19939;-65
2022/06/11 06:01:39;;;;;;;7.30;3.30;;;;;;;18.23;64.45;101980.00;3599541;39;20067;-64
2022/06/11 06:04:06;;;;;;;9.50;3.47;;;;;;;17.95;63.28;101920.50;3600715;39;20059;-63
2022/06/11 06:06:32;;;;;;;10.57;3.33;;;;;;;18.41;61.48;101987.78;3600219;39;20099;-64
2022/06/11 06:08:58;;;;;;;11.38;2.85;;;;;;;18.24;60.62;101940.06;3603001;39;20059;-63
2022/06/11 06:11:25;;;;;;;7.65;2.63;;;;;;;18.64;60.14;101984.13;3599040;39;20047;-65
2022/06/11 06:13:52;;;;;;;10.30;3.30;;;;;;;18.68;59.64;101979.31;3601187;39;20047;-64
2022/06/11 06:16:26;;;;;;;11.00;2.63;;;;;;;18.63;60.04;101966.06;3598885;39;20301;-64
2022/06/11 06:18:55;;;;;;;9.68;3.15;;;;;;;18.82;59.70;102000.94;3599302;39;20083;-64
2022/06/11 06:21:25;;;;;;;9.80;3.08;;;;;;;18.91;58.35;102002.09;3598446;39;20341;-65
2022/06/11 06:23:52;;;;;;;8.68;2.85;;;;;;;18.95;57.88;102006.31;3601273;39;20189;-64
2022/06/11 06:26:18;;;;;;;11.00;3.22;;;;;;;19.13;58.76;101999.41;3599787;39;20053;-66
2022/06/11 06:28:44;;;;;;;10.88;3.25;;;;;;;19.18;57.98;102016.25;3598703;39;20043;-65
2022/06/11 06:31:14;;;;;;;7.53;3.17;;;;;;;19.21;57.73;102005.09;3600696;39;20046;-65
2022/06/11 06:33:40;;;;;;;14.68;3.97;;;;;;;19.23;57.05;102000.41;3598598;39;20068;-65
2022/06/11 06:36:08;;;;;;;10.05;2.90;;;;;;;19.34;56.85;102009.56;3600038;39;20366;-64
2022/06/11 06:38:36;;;;;;;10.50;3.20;;;;;;;19.36;56.59;102013.06;3599283;39;20098;-64
2022/06/11 06:41:03;;;;;;;10.55;3.15;;;;;;;19.34;56.74;102015.03;3597919;39;20055;-66
2022/06/11 06:43:29;;;;;;;10.82;3.10;;;;;;;19.29;57.24;102009.09;3598748;39;20058;-65
2022/06/11 06:45:54;;;;;;;10.68;3.28;;;;;;;19.14;56.93;102011.16;3599806;39;20380;-64
2022/06/11 06:48:20;;;;;;;12.18;3.30;;;;;;;18.90;57.55;101986.72;3599598;39;20047;-64
2022/06/11 06:50:47;;;;;;;14.20;3.20;;;;;;;19.21;59.10;102024.19;3600185;39;20055;-64
2022/06/11 06:53:13;;;;;;;13.55;2.95;;;;;;;19.27;59.23;102020.09;3599509;39;20055;-66
2022/06/11 06:55:40;;;;;;;12.77;3.25;;;;;;;19.32;57.89;102023.34;3600059;39;20129;-65
2022/06/11 06:58:06;;;;;;;12.23;3.17;;;;;;;19.38;56.98;102022.00;3599102;39;20123;-65
2022/06/11 07:00:32;;;;;;;17.20;3.65;;;;;;;19.36;57.15;102021.25;3598777;39;20063;-65
2022/06/11 07:02:58;;;;;;;14.10;3.83;;;;;;;19.38;57.48;102013.81;3599716;39;20067;-64
2022/06/11 07:05:25;;;;;;;18.80;4.50;;;;;;;19.50;57.24;102010.06;3598730;39;20891;-65
2022/06/11 07:07:52;;;;;;;14.25;3.55;;;;;;;19.49;55.82;102016.53;3598843;39;20048;-65
2022/06/11 07:10:21;;;;;;;15.75;3.72;;;;;;;19.58;56.19;102013.06;3598860;39;20087;-64
2022/06/11 07:12:47;;;;;;;17.40;3.70;;;;;;;19.70;56.33;102011.25;3599217;39;20075;-64
2022/06/11 07:15:13;;;;;;;13.23;3.45;;;;;;;19.81;55.40;102000.28;3598494;39;20063;-65
2022/06/11 07:17:50;;;;;;;18.08;3.65;;;;;;;19.60;54.62;101962.00;3603453;39;20044;-63
2022/06/11 07:20:23;;;;;;;15.30;3.22;;;;;;;20.05;55.56;102005.59;3600017;39;20413;-67
2022/06/11 07:23:06;;;;;;;15.25;3.53;;;;;;;20.36;55.51;102008.47;3601707;39;20047;-64
2022/06/11 07:25:33;;;;;;;15.10;3.78;;;;;;;20.53;54.58;102015.28;3599541;39;20301;-65
2022/06/11 07:28:13;;;;;;;13.68;3.53;;;;;;;20.65;54.19;102019.69;3592617;39;20066;-64
2022/06/11 07:30:44;;;;;;;15.43;3.92;;;;;;;20.69;53.99;102020.31;3598991;39;20051;-64
2022/06/11 07:33:17;;;;;;;14.90;4.05;;;;;;;20.80;54.10;102023.81;3597410;39;20535;-65
2022/06/11 07:35:43;;;;;;;;;;;;;;;20.98;53.33;102025.97;3599528;39;20063;-64
2022/06/11 07:38:13;;;;;;;13.52;3.65;;;;;;;21.16;53.36;102034.44;3599188;39;19939;-65
2022/06/11 07:40:40;;;;;;;14.65;4.10;;;;;;;21.29;53.18;102035.09;3598752;39;20153;-65
2022/06/11 07:43:08;;;;;;;15.52;4.10;;;;;;;21.30;52.98;102031.34;3591464;39;20055;-65
2022/06/11 07:45:40;;;;;;;13.82;3.97;;;;;;;21.35;53.43;102020.03;3597707;39;20156;-64
2022/06/11 07:48:08;;;;;;;13.65;3.38;;;;;;;21.42;52.15;102013.88;3600346;39;20120;-65
2022/06/11 07:50:40;;;;;;;15.60;3.63;;;;;;;21.47;52.80;102019.81;3600629;39;20066;-65
2022/06/11 07:53:07;;;;;;;13.75;3.65;;;;;;;21.56;52.95;102010.78;3601297;39;20063;-65
2022/06/11 07:55:37;;;;;;;15.00;3.72;;;;;;;21.36;50.98;101981.59;3602237;39;20091;-65
2022/06/11 07:58:05;;;;;;;13.50;4.00;;;;;;;21.51;51.43;102023.16;3603284;39;20093;-65
2022/06/11 08:00:42;;;;;;;13.75;3.83;;;;;;;21.46;52.53;102019.94;3601509;39;20120;-66
2022/06/11 08:03:07;;;;;;;18.45;4.10;;;;;;;21.43;53.15;102033.91;3601530;39;20067;-66
2022/06/11 08:05:35;;;;;;;14.05;4.03;;;;;;;21.35;52.57;102033.69;3600400;39;20456;-65
2022/06/11 08:08:01;;;;;;;12.50;4.10;;;;;;;21.42;52.54;102045.84;3603292;39;20039;-65
2022/06/11 08:10:29;;;;;;;17.17;3.95;;;;;;;21.50;52.94;102037.81;3599902;39;20054;-65
2022/06/11 08:12:55;;;;;;;15.82;4.20;;;;;;;21.71;51.29;102035.91;3602711;39;20059;-66
2022/06/11 08:15:22;;;;;;;11.77;3.60;;;;;;;21.74;51.06;102037.50;3603762;39;20043;-66
2022/06/11 08:17:48;;;;;;;16.00;3.70;;;;;;;21.63;51.99;102043.06;3605224;39;20107;-65
2022/06/11 08:20:20;;;;;;;18.48;4.20;;;;;;;21.69;52.12;102043.41;3603972;39;20047;-66
2022/06/11 08:22:45;;;;;;;18.98;3.80;;;;;;;21.65;52.71;102046.53;3599501;39;20062;-66
2022/06/11 08:25:11;;;;;;;15.48;4.43;;;;;;;21.72;52.51;102047.72;3605412;39;20059;-64
2022/06/11 08:27:37;;;;;;;14.27;3.72;;;;;;;21.67;51.73;102045.41;3603342;39;20060;-65
2022/06/11 08:30:05;;;;;;;16.70;4.20;;;;;;;21.58;51.99;102053.56;3602097;39;20409;-66
2022/06/11 08:32:31;;;;;;;11.48;3.90;;;;;;;21.40;52.70;102050.59;3600469;39;20101;-65
2022/06/11 08:34:56;;;;;;;15.13;4.03;;;;;;;21.40;53.39;102051.44;3603391;39;20056;-64
2022/06/11 08:37:23;;;;;;;19.80;4.45;;;;;;;21.51;52.50;102051.38;3599363;39;20074;-63
2022/06/11 08:39:49;;;;;;;18.80;4.53;;;;;;;21.92;52.34;102054.16;3603485;39;20061;-64
2022/06/11 08:42:41;;;;;;;14.18;4.05;;;;;;;22.38;50.31;102044.47;3602266;39;21445;-64
2022/06/11 08:45:19;;;;;;;17.75;4.05;;;;;;;22.91;51.00;102047.66;3603070;39;20043;-64
2022/06/11 08:47:51;;;;;;;15.02;3.88;;;;;;;23.55;48.89;102045.22;3602868;39;20090;-64
2022/06/11 08:50:31;;;;;;;16.77;3.95;;;;;;;23.64;48.20;102052.56;3602266;39;20051;-65
2022/06/11 08:52:56;;;;;;;14.32;3.97;;;;;;;23.78;46.05;102043.84;3603266;39;20340;-64
2022/06/11 08:55:32;;;;;;;16.27;4.13;;;;;;;23.78;45.14;102043.84;3602726;39;20055;-65
2022/06/11 08:58:42;;;;;;;16.38;3.63;;;;;;;23.78;45.04;102048.50;3603894;39;20057;-64
2022/06/11 09:01:34;;;;;;;16.08;3.85;;;;;;;23.78;45.78;102049.34;3601864;39;20067;-65
2022/06/11 09:04:13;;;;;;;15.60;3.83;;;;;;;23.60;46.03;102056.66;3600635;39;20046;-64
2022/06/11 09:07:12;;;;;;;14.90;3.70;;;;;;;23.44;45.43;102059.13;3602321;39;20095;-65
2022/06/11 09:09:53;;;;;;;13.23;3.47;;;;;;;23.34;45.18;102053.66;3602394;39;20071;-64
2022/06/11 09:13:05;;;;;;;13.45;4.18;;;;;;;23.33;45.40;102050.06;3600856;39;20083;-64
2022/06/11 09:15:55;;;;;;;15.43;3.78;;;;;;;23.28;45.01;102052.41;3593319;39;20471;-64
2022/06/11 09:18:42;;;;;;;14.35;3.40;;;;;;;23.12;45.88;102050.28;3600467;39;20056;-64
2022/06/11 09:22:00;;;;;;;14.20;3.75;;;;;;;22.99;46.88;102048.81;3602513;39;20051;-65
2022/06/11 09:25:04;;;;;;;18.50;3.83;;;;;;;22.86;47.27;102049.09;3600105;39;20094;-65
2022/06/11 09:27:36;;;;;;;;;;;;;;;22.74;46.80;102055.72;3603177;39;20144;-66
2022/06/11 09:30:17;;;;;;;13.15;3.42;;;;;;;22.66;45.86;102042.75;3603963;39;20358;-64
2022/06/11 09:32:52;;;;;;;19.23;4.53;;;;;;;22.73;46.66;102045.78;3600520;39;20054;-65
2022/06/11 09:35:30;;;;;;;14.73;3.92;;;;;;;22.81;48.32;102051.44;3604699;39;20047;-64
2022/06/11 09:38:30;;;;;;;13.82;3.88;;;;;;;22.95;47.91;102048.25;3600979;39;20059;-65
2022/06/11 09:41:33;;;;;;;15.32;4.53;;;;;;;23.47;46.52;102047.84;3601414;39;20048;-64
2022/06/11 09:44:32;;;;;;;11.02;3.30;;;;;;;23.84;44.91;102046.00;3602109;39;20064;-65
2022/06/11 09:47:30;;;;;;;14.88;4.05;;;;;;;24.28;46.20;102039.81;3601520;39;20416;-65
2022/06/11 09:50:13;;;;;;;17.95;4.22;;;;;;;24.48;43.94;102043.31;3588993;39;20412;-65
2022/06/11 09:53:21;;;;;;;13.63;3.83;;;;;;;24.91;44.14;102055.41;3602912;39;20075;-65
2022/06/11 09:56:29;;;;;;;14.55;4.32;;;;;;;24.99;43.22;102047.22;3602324;39;20401;-65
2022/06/11 09:59:25;;;;;;;16.02;4.15;;;;;;;25.17;42.44;102044.47;3604322;39;20043;-65
2022/06/11 10:02:59;;;;;;;16.63;4.32;;;;;;;25.32;42.77;102058.53;3601969;39;20302;-65
2022/06/11 10:05:25;;;;;;;15.65;4.00;;;;;;;25.75;42.85;102040.16;3597870;39;20051;-64
2022/06/11 10:08:06;;;;;;;15.13;4.20;;;;;;;25.95;40.75;102044.44;3602162;39;20090;-67
2022/06/11 10:10:41;;;;;;;12.85;3.38;;;;;;;26.31;38.65;102041.44;3599419;39;20055;-67
2022/06/11 10:13:41;;;;;;;15.30;4.38;;;;;;;26.05;38.44;102047.06;3604025;39;20050;-64
2022/06/11 10:16:27;;;;;;;11.63;3.35;;;;;;;25.75;39.80;102040.16;3585700;39;20039;-64
2022/06/11 10:19:19;;;;;;;13.32;3.50;;;;;;;25.80;40.83;102046.06;3600118;39;20051;-65
2022/06/11 10:22:06;;;;;;;10.38;2.95;;;;;;;25.83;38.81;102046.63;3602238;39;20063;-64
2022/06/11 10:24:37;;;;;;;8.90;2.63;;;;;;;25.84;37.84;102044.72;3600921;39;20035;-65
2022/06/11 10:27:15;;;;;;;8.93;2.95;;;;;;;25.97;37.83;102047.00;3604514;39;20395;-65
2022/06/11 10:29:51;;;;;;;10.43;3.15;;;;;;;26.11;37.66;102061.03;3605861;39;20054;-65
2022/06/11 10:32:26;;;;;;;9.57;2.92;;;;;;;26.21;38.64;102054.50;3603874;39;20321;-65
2022/06/11 10:35:17;;;;;;;15.10;3.58;;;;;;;26.35;38.62;102040.06;3606930;39;20051;-64
2022/06/11 10:38:01;;;;;;;10.98;2.97;;;;;;;26.53;37.36;102054.63;3603144;39;20055;-65
2022/06/11 10:40:40;;;;;;;13.15;3.25;;;;;;;26.63;36.33;102055.31;3602369;39;20058;-66
2022/06/11 10:43:23;;;;;;;8.93;2.58;;;;;;;26.77;36.57;102055.69;3604673;39;20095;-65
2022/06/11 10:45:49;;;;;;;10.70;2.88;;;;;;;26.89;36.71;102048.78;3604315;39;20066;-66
2022/06/11 10:48:23;;;;;;;10.52;3.17;;;;;;;27.01;37.35;102050.16;3601757;39;21622;-66
2022/06/11 10:50:51;;;;;;;12.40;3.00;;;;;;;27.02;35.38;102042.72;3603847;39;20059;-67
2022/06/11 10:53:50;;;;;;;9.30;3.00;;;;;;;27.16;34.58;102043.97;3602998;39;20382;-63
2022/06/11 10:56:30;;;;;;;11.65;2.90;;;;;;;27.05;35.07;102059.84;3602400;39;20043;-63
2022/06/11 10:59:14;;;;;;;12.43;2.90;;;;;;;27.14;35.72;102044.13;3601582;39;20060;-63
2022/06/11 11:01:52;;;;;;;9.45;3.13;;;;;;;27.25;35.69;102059.50;3600120;39;20128;-62
2022/06/11 11:04:58;;;;;;;11.55;3.15;;;;;;;27.28;35.32;102050.88;3598146;39;20129;-62
2022/06/11 11:07:24;;;;;;;9.20;2.60;;;;;;;27.33;34.83;102039.28;3599119;39;20054;-62
2022/06/11 11:09:58;;;;;;;8.98;2.70;;;;;;;27.59;35.92;102050.09;3600353;39;20056;-63
2022/06/11 11:12:35;;;;;;;14.80;3.20;;;;;;;27.58;34.23;102042.84;3598613;39;20047;-63
2022/06/11 11:15:09;;;;;;;11.13;3.30;;;;;;;27.67;34.97;102039.03;3599601;39;20120;-63
2022/06/11 11:17:45;;;;;;;13.70;3.35;;;;;;;27.68;35.89;102033.31;3599340;39;20071;-62
2022/06/11 11:20:39;;;;;;;12.73;3.53;;;;;;;27.81;36.01;102032.75;3599984;39;20520;-62
2022/06/11 11:23:10;;;;;;;12.05;3.38;;;;;;;27.81;37.11;102032.75;3598500;39;20047;-63
2022/06/11 11:26:14;;;;;;;12.10;3.33;;;;;;;27.93;35.47;102023.03;3599050;39;20071;-62
2022/06/11 11:29:01;;;;;;;10.05;2.83;;;;;;;27.74;35.96;102026.22;3596277;39;20082;-63
2022/06/11 11:31:52;;;;;;;13.23;3.15;;;;;;;27.40;35.78;102030.09;3596407;39;20074;-62
2022/06/11 11:34:21;;;;;;;14.02;3.33;;;;;;;27.75;36.51;102022.38;3597354;39;20059;-63
2022/06/11 11:36:47;;;;;;;10.82;3.13;;;;;;;27.79;36.03;102012.75;3598391;39;20059;-62
2022/06/11 11:39:13;;;;;;;15.43;4.13;;;;;;;27.87;35.16;102021.00;3598986;39;20051;-62
2022/06/11 11:42:04;;;;;;;15.25;3.70;;;;;;;28.26;36.61;102028.41;3600283;39;20382;-62
2022/06/11 11:44:38;;;;;;;15.35;4.50;;;;;;;28.19;36.83;102017.19;3595858;39;20375;-62
2022/06/11 11:47:17;;;;;;;13.65;3.78;;;;;;;28.31;35.73;102027.84;3597827;39;20063;-63
2022/06/11 11:49:53;;;;;;;11.18;3.38;;;;;;;28.07;35.17;102015.91;3597187;39;20395;-63
2022/06/11 11:52:24;;;;;;;13.25;3.92;;;;;;;28.31;35.48;102023.19;3598007;39;20305;-62
2022/06/11 11:55:00;;;;;;;12.75;3.65;;;;;;;27.96;35.39;102019.91;3599396;39;20144;-62
2022/06/11 11:57:32;;;;;;;14.23;3.72;;;;;;;27.67;36.43;102025.22;3599647;39;20051;-62
2022/06/11 12:00:07;;;;;;;16.50;4.27;;;;;;;27.37;36.33;102030.47;3599176;39;20139;-63